ADDS METAR Data INFO
IDs: Format: Raw Decoded Include TAF

Data at: 2223 UTC 24 Jun 2018

KANQ 242215Z AUTO 34007KT 10SM BKN041 25/17 A2998 RMK AO2 TSNO
KANQ 242155Z AUTO 32007G13KT 10SM FEW040 25/17 A2998 RMK AO2 TSNO
KANQ 242135Z AUTO 32012KT 10SM FEW043 25/16 A2998 RMK AO2 TSNO
KANQ 242115Z AUTO 31010G15KT 10SM SCT045 25/17 A2998 RMK AO2 TSNO
KANQ 242055Z AUTO 33008G14KT 10SM BKN046 BKN055 25/17 A2998 RMK AO2 TSNO
KANQ 242035Z AUTO 31010KT 10SM SCT044 BKN050 25/16 A2998 RMK AO2 TSNO
KANQ 242015Z AUTO 30007G14KT 10SM SCT044 SCT055 26/17 A2997 RMK AO2 TSNO
KANQ 241955Z AUTO 31006G15KT 10SM FEW045 FEW055 25/17 A2996 RMK AO2 TSNO
KANQ 241935Z AUTO 31008G16KT 10SM SCT045 SCT050 25/16 A2996 RMK AO2 TSNO
KANQ 241915Z AUTO 32010G16KT 10SM FEW046 FEW050 25/17 A2995 RMK AO2 TSNO
KANQ 241855Z AUTO 31011G16KT 10SM FEW044 FEW060 25/16 A2996 RMK AO2 TSNO
KANQ 241835Z AUTO 31011G17KT 10SM FEW041 FEW050 SCT060 25/16 A2995 RMK AO2 TSNO
KANQ 241815Z AUTO 31010G16KT 10SM FEW040 SCT050 SCT055 25/17 A2995 RMK AO2 TSNO
KANQ 241755Z AUTO 29011G16KT 10SM FEW037 SCT043 BKN050 25/17 A2994 RMK AO2 TSNO
KANQ 241735Z AUTO 28010G17KT 10SM SCT037 BKN046 BKN055 24/17 A2993 RMK AO2 TSNO
KANQ 241715Z AUTO 31008KT 280V350 10SM SCT036 BKN044 BKN055 25/18 A2993 RMK AO2 TSNO
KANQ 241655Z AUTO 33009G14KT 290V350 10SM SCT037 SCT044 BKN049 24/17 A2993 RMK AO2 TSNO
KANQ 241635Z AUTO 30012KT 10SM FEW032 24/16 A2993 RMK AO2 TSNO
KANQ 241615Z AUTO 31013G20KT 10SM SCT033 23/16 A2993 RMK AO2 TSNO
KANQ 241555Z AUTO 33011KT 10SM CLR 23/17 A2992 RMK AO2 TSNO
KANQ 241535Z AUTO 30012G18KT 10SM CLR 23/16 A2993 RMK AO2 TSNO
KANQ 241515Z AUTO 31011G18KT 10SM CLR 23/16 A2993 RMK AO2 TSNO
KANQ 241455Z AUTO 30010G19KT 10SM CLR 22/16 A2992 RMK AO2 TSNO
KANQ 241435Z AUTO 29008G13KT 250V310 10SM CLR 22/17 A2991 RMK AO2 TSNO
KANQ 241415Z AUTO 29008G14KT 10SM CLR 21/16 A2990 RMK AO2 TSNO
KANQ 241355Z AUTO 30008G13KT 10SM CLR 20/16 A2989 RMK AO2 TSNO
KANQ 241335Z AUTO 30008G15KT 10SM CLR 20/16 A2989 RMK AO2 TSNO
KANQ 241315Z AUTO 31009G14KT 10SM CLR 20/16 A2988 RMK AO2 TSNO
KANQ 241255Z AUTO 30007KT 9SM CLR 19/16 A2987 RMK AO2 TSNO
KANQ 241235Z AUTO 28009KT 250V310 5SM BR FEW010 FEW120 19/17 A2986 RMK AO2 TSNO
KANQ 241215Z AUTO 29006G11KT 4SM BR SCT010 SCT013 19/18 A2986 RMK AO2 TSNO
KANQ 241155Z AUTO VRB06G11KT 3SM BR BKN009 BKN013 19/17 A2986 RMK AO2 TSNO
KANQ 241135Z AUTO 27007KT 3SM BR BKN009 OVC013 19/18 A2986 RMK AO2 TSNO
KANQ 241115Z AUTO 27005KT 3SM BR BKN013 OVC018 19/18 A2985 RMK AO2 TSNO
KANQ 241055Z AUTO 26003KT 3SM BR SCT014 BKN018 BKN022 18/18 A2985 RMK AO2 TSNO
KANQ 241035Z AUTO 00000KT 3SM BR BKN020 18/17 A2984 RMK AO2 TSNO
KANQ 241015Z AUTO 00000KT 3SM BR OVC022 18/17 A2984 RMK AO2 TSNO
KANQ 240955Z AUTO 00000KT 4SM BR BKN024 BKN046 OVC110 17/17 A2984 RMK AO2 TSNO
KANQ 240935Z AUTO 00000KT 6SM BR BKN025 BKN046 OVC120 17/17 A2983 RMK AO2 TSNO
KANQ 240915Z AUTO 00000KT 8SM FEW005 FEW025 OVC120 17/16 A2983 RMK AO2 TSNO
KANQ 240855Z AUTO 21003KT 8SM OVC110 17/16 A2983 RMK AO2 TSNO
KANQ 240835Z AUTO 00000KT 9SM OVC110 17/16 A2983 RMK AO2 TSNO
KANQ 240815Z AUTO 00000KT 8SM OVC110 17/16 A2982 RMK AO2 TSNO
KANQ 240755Z AUTO 21003KT 7SM OVC110 17/16 A2982 RMK AO2 TSNO
KANQ 240735Z AUTO 00000KT 6SM BR OVC100 16/16 A2982 RMK AO2 TSNO
KANQ 240715Z AUTO 00000KT 7SM OVC100 17/16 A2982 RMK AO2 TSNO
KANQ 240655Z AUTO 00000KT 7SM OVC100 17/16 A2982 RMK AO2 TSNO
KANQ 240635Z AUTO 25003KT 10SM OVC095 17/16 A2982 RMK AO2 TSNO
KANQ 240615Z AUTO 25005KT 9SM FEW044 BKN095 17/16 A2983 RMK AO2 TSNO
KANQ 240555Z AUTO 24004KT 10SM FEW040 BKN090 17/16 A2982 RMK AO2 TSNO
KANQ 240535Z AUTO 26004KT 8SM SCT038 SCT055 17/16 A2982 RMK AO2 TSNO
KANQ 240515Z AUTO 00000KT 7SM FEW039 16/16 A2981 RMK AO2 TSNO
KANQ 240455Z AUTO 00000KT 9SM FEW037 17/16 A2982 RMK AO2 TSNO
KANQ 240435Z AUTO 00000KT 10SM CLR 17/16 A2981 RMK AO2 TSNO
KANQ 240415Z AUTO 00000KT 10SM CLR 17/16 A2980 RMK AO2 TSNO
KANQ 231215Z AUTO 33004KT 1/4SM FG OVC003 18/18 A2971 RMK AO2 TSNO
KANQ 231155Z AUTO 32003KT M1/4SM FG OVC003 18/18 A2971 RMK AO2 TSNO
KANQ 231135Z AUTO 31005KT 1/2SM FG OVC003 18/18 A2970 RMK AO2 TSNO
KANQ 231115Z AUTO 33004KT 1/2SM BR OVC003 18/18 A2969 RMK AO2 TSNO
KANQ 231055Z AUTO 00000KT M1/4SM FG OVC003 18/18 A2970 RMK AO2 TSNO
KANQ 231035Z AUTO 33003KT 3/4SM BR OVC003 18/18 A2969 RMK AO2 TSNO